SAZB/BHI METAR and TAF weather

Enter ICAO airport designator
Station Type Date Time Source
SAZB METAR 2021/05/08 13:55 UTC NOAA

SAZB 081355Z 36018KT CAVOK 17/05 Q1023


Station Type Date Time Source
SAZB Decoded METAR 2021/05/08 13:55 UTC NOAA

Bahia Blanca Aerodrome, Argentina (SAZB) 38-44S 062-10W 83M
May 08, 2021 - 09:55 AM EDT / 2021.05.08 1355 UTC
Wind: from the N (360 degrees) at 21 MPH (18 KT):0
Visibility: greater than 7 mile(s):0
Temperature: 62 F (17 C)
Dew Point: 41 F (5 C)
Relative Humidity: 45%
Pressure (altimeter): 30.21 in. Hg (1023 hPa)
ob: SAZB 081355Z 36018KT CAVOK 17/05 Q1023
cycle: 14

Station Type Date Time Source
SAZB TAF 2021/03/28 06:26 UTC NOAA

TAF SAZB 280500Z 2806/2906 09010KT CAVOK TX22/2818Z TN08/2810Z
BECMG 2807/2809 VRB03KT 5000 BR NSC
TEMPO 2809/2812 0800 FG NSC
BECMG 2812/1814 12005KT CAVOK

Example: see airport list